Terminal Aerodrome Forecast
Issued by NWS

Home | Current Version | Previous Version | Text Only | Print | Product List | Glossary On
Versions: 1 2 3 4 5 6 7 8 9 10 11 12 13 14 15 16 17
000
FTUS46 KLOX 062320
TAFBUR
TAF
KBUR 062320Z 0700/0724 17008KT P6SM SKC
     FM070500 VRB03KT P6SM SKC
     FM070800 VRB03KT P6SM OVC010
     FM071900 17008KT P6SM SKC=

USA.gov is the U.S. government's official web portal to all federal, state and local government web resources and services.